Time;durP1;ratioP1;P1;durP2;ratioP2;P2;SDS_P1;SDS_P2;PMS_P1;PMS_P2;Temp;Humidity;BMP_temperature;BMP_pressure;BME280_temperature;BME280_humidity;BME280_pressure;Samples;Min_cycle;Max_cycle;Signal;HPM_P1;HPM_P2
2021/12/07 00:02:09;;;;;;;5.65;2.75;;;5.90;97.20;;;;;;5035457;28;20582;-92
2021/12/07 00:04:37;;;;;;;3.80;2.80;;;5.90;97.00;;;;;;5026012;28;20037;-90
2021/12/07 00:07:03;;;;;;;5.63;2.58;;;5.90;96.90;;;;;;5020812;28;20021;-90
2021/12/07 00:09:29;;;;;;;6.88;2.65;;;5.90;96.90;;;;;;5003797;28;20037;-91
2021/12/07 00:11:56;;;;;;;6.03;2.90;;;5.90;96.90;;;;;;5018176;28;20036;-90
2021/12/07 00:14:24;;;;;;;5.72;2.55;;;5.90;96.90;;;;;;5004778;28;20104;-91
2021/12/07 00:16:53;;;;;;;9.05;2.92;;;5.90;96.90;;;;;;5016036;28;20072;-89
2021/12/07 00:19:19;;;;;;;6.65;2.78;;;6.00;96.90;;;;;;5016586;28;20052;-90
2021/12/07 00:21:46;;;;;;;7.43;3.17;;;6.00;97.00;;;;;;5012855;28;20033;-92
2021/12/07 00:24:14;;;;;;;4.15;2.20;;;6.00;97.00;;;;;;5038450;28;20021;-89
2021/12/07 00:26:42;;;;;;;6.13;2.65;;;6.00;97.00;;;;;;5022342;28;20295;-90
2021/12/07 00:29:09;;;;;;;5.05;2.28;;;6.10;97.00;;;;;;5016726;28;20139;-91
2021/12/07 00:31:44;;;;;;;5.50;2.05;;;6.10;97.00;;;;;;5014728;28;20293;-90
2021/12/07 00:37:10;;;;;;;5.82;2.55;;;6.10;97.00;;;;;;5005308;28;20032;-89
2021/12/07 00:39:36;;;;;;;6.03;2.50;;;6.10;97.00;;;;;;5009510;28;20150;-89
2021/12/07 00:42:03;;;;;;;7.88;3.13;;;6.20;97.10;;;;;;5003206;28;20031;-90
2021/12/07 00:44:29;;;;;;;6.35;2.33;;;6.20;97.10;;;;;;5021114;28;20040;-91
2021/12/07 00:46:55;;;;;;;5.07;2.40;;;6.20;97.20;;;;;;5020109;28;20527;-91
2021/12/07 00:49:21;;;;;;;6.85;2.38;;;6.30;97.20;;;;;;4993512;28;20932;-90
2021/12/07 00:51:47;;;;;;;4.78;2.15;;;6.30;97.20;;;;;;5021715;28;20028;-89
2021/12/07 00:54:14;;;;;;;6.60;2.15;;;6.30;97.00;;;;;;5001792;28;20037;-90
2021/12/07 00:56:39;;;;;;;4.75;2.05;;;6.30;96.90;;;;;;5001061;28;20399;-89
2021/12/07 00:59:05;;;;;;;4.57;2.08;;;6.30;96.80;;;;;;5020943;28;20033;-89
2021/12/07 01:01:32;;;;;;;4.05;1.77;;;6.30;96.70;;;;;;5018801;28;20296;-90
2021/12/07 01:03:58;;;;;;;5.50;2.20;;;6.30;96.60;;;;;;5001218;28;20032;-90
2021/12/07 01:09:15;;;;;;;5.20;1.70;;;6.30;96.40;;;;;;5019984;28;20036;-90
2021/12/07 01:25:35;;;;;;;5.93;1.98;;;6.20;96.20;;;;;;5031553;28;20280;-90
2021/12/07 01:28:08;;;;;;;4.57;1.70;;;6.20;96.20;;;;;;5009538;28;20112;-89
2021/12/07 01:30:54;;;;;;;5.38;1.50;;;6.20;96.20;;;;;;5032060;28;20734;-90
2021/12/07 01:51:48;;;;;;;2.92;1.30;;;6.10;96.00;;;;;;5024637;28;20172;-91
2021/12/07 01:59:49;;;;;;;5.80;2.28;;;6.00;96.10;;;;;;5039596;28;20174;-90
2021/12/07 02:02:17;;;;;;;4.65;1.55;;;6.00;96.20;;;;;;5019560;28;20048;-88
2021/12/07 02:04:43;;;;;;;4.68;1.63;;;6.00;96.30;;;;;;5042628;28;20428;-89
2021/12/07 02:07:09;;;;;;;3.67;1.50;;;6.00;96.30;;;;;;5018137;28;20031;-88
2021/12/07 02:09:38;;;;;;;4.30;1.88;;;6.00;96.30;;;;;;5010455;28;20693;-89
2021/12/07 02:12:06;;;;;;;6.35;1.98;;;6.00;96.20;;;;;;5011484;28;20021;-88
2021/12/07 02:14:32;;;;;;;6.30;1.52;;;6.00;96.20;;;;;;5018344;28;20017;-89
2021/12/07 02:17:03;;;;;;;5.25;1.60;;;6.00;96.20;;;;;;5027001;28;20025;-89
2021/12/07 02:19:29;;;;;;;3.72;1.38;;;6.00;96.20;;;;;;5010866;28;20356;-89
2021/12/07 02:21:56;;;;;;;3.13;1.50;;;6.00;96.20;;;;;;5007851;28;20040;-89
2021/12/07 02:24:22;;;;;;;5.13;1.55;;;6.00;96.10;;;;;;5000441;28;20517;-90
2021/12/07 02:26:48;;;;;;;2.63;1.23;;;6.00;96.20;;;;;;5025137;28;20039;-86
2021/12/07 02:29:15;;;;;;;3.13;1.42;;;6.00;95.90;;;;;;5006372;28;20534;-88
2021/12/07 02:31:41;;;;;;;3.78;1.35;;;6.00;95.90;;;;;;5011449;28;21551;-89
2021/12/07 02:34:07;;;;;;;4.93;1.70;;;6.00;95.90;;;;;;5017076;28;20288;-89
2021/12/07 02:36:33;;;;;;;3.15;1.60;;;5.90;95.80;;;;;;5001146;28;20048;-88
2021/12/07 02:38:59;;;;;;;3.80;1.90;;;5.90;95.90;;;;;;5006740;28;20039;-89
2021/12/07 02:41:25;;;;;;;4.72;1.50;;;5.90;95.90;;;;;;5021893;28;20017;-90
2021/12/07 02:43:51;;;;;;;2.22;1.30;;;5.90;95.90;;;;;;5013811;28;20394;-90
2021/12/07 02:46:17;;;;;;;3.40;1.40;;;5.90;95.90;;;;;;5011670;28;20045;-88
2021/12/07 02:48:43;;;;;;;3.75;1.30;;;5.80;96.00;;;;;;5029362;28;20024;-90
2021/12/07 02:51:09;;;;;;;5.95;1.42;;;5.80;96.10;;;;;;5008654;28;20060;-89
2021/12/07 02:53:37;;;;;;;3.33;1.52;;;5.90;96.30;;;;;;5025115;28;20124;-88
2021/12/07 02:56:06;;;;;;;4.55;1.95;;;5.90;96.40;;;;;;5017256;28;20028;-90
2021/12/07 02:58:31;;;;;;;3.10;1.55;;;5.90;96.50;;;;;;5022503;28;20033;-89
2021/12/07 03:01:08;;;;;;;7.18;1.80;;;5.90;96.30;;;;;;5026105;28;20401;-89
2021/12/07 03:03:38;;;;;;;6.35;1.60;;;5.90;96.30;;;;;;5011656;28;20170;-89
2021/12/07 03:06:21;;;;;;;4.32;1.55;;;5.90;96.30;;;;;;5011079;28;20486;-90
2021/12/07 03:28:02;;;;;;;;;;;6.00;96.20;;;;;;5028742;28;20573;-89
2021/12/07 03:30:29;;;;;;;3.42;1.30;;;6.00;96.00;;;;;;5012225;28;19920;-89
2021/12/07 03:32:55;;;;;;;4.97;1.70;;;6.00;95.80;;;;;;5016158;28;20024;-89
2021/12/07 03:35:20;;;;;;;7.00;1.95;;;6.00;95.80;;;;;;4996750;28;20404;-90
2021/12/07 03:37:46;;;;;;;3.60;1.48;;;5.90;95.80;;;;;;5035212;28;20025;-90
2021/12/07 03:40:15;;;;;;;3.10;1.30;;;5.90;95.70;;;;;;5006822;28;20450;-88
2021/12/07 03:42:42;;;;;;;3.67;1.30;;;5.90;95.70;;;;;;5012909;28;20105;-89
2021/12/07 03:45:09;;;;;;;3.67;1.25;;;5.90;95.70;;;;;;5019506;28;20164;-89
2021/12/07 03:47:35;;;;;;;2.45;1.38;;;5.90;95.70;;;;;;5007883;28;20035;-89
2021/12/07 03:50:02;;;;;;;2.40;0.98;;;5.80;95.70;;;;;;5007425;28;20032;-90
2021/12/07 03:52:27;;;;;;;3.80;1.42;;;5.80;95.60;;;;;;5001128;28;20289;-90
2021/12/07 03:54:53;;;;;;;5.15;1.40;;;5.80;95.60;;;;;;5008264;28;20066;-89
2021/12/07 03:57:19;;;;;;;4.22;1.55;;;5.80;95.60;;;;;;5000340;28;20037;-90
2021/12/07 03:59:44;;;;;;;3.13;1.48;;;5.70;95.50;;;;;;5030042;28;20037;-89
2021/12/07 04:02:11;;;;;;;4.07;1.60;;;5.70;95.50;;;;;;5016453;28;20144;-89
2021/12/07 04:04:38;;;;;;;2.53;1.33;;;5.70;95.60;;;;;;5025627;28;20062;-89
2021/12/07 04:07:05;;;;;;;3.67;1.02;;;5.70;95.50;;;;;;5010109;28;20037;-89
2021/12/07 04:09:32;;;;;;;4.57;1.40;;;5.70;95.50;;;;;;5031095;28;20173;-90
2021/12/07 04:11:58;;;;;;;3.92;1.27;;;5.60;95.40;;;;;;4997309;28;20053;-90
2021/12/07 04:14:24;;;;;;;3.15;1.30;;;5.60;95.40;;;;;;4999480;28;20121;-90
2021/12/07 04:16:50;;;;;;;2.80;1.05;;;5.60;95.40;;;;;;5013841;28;20111;-90
2021/12/07 04:19:16;;;;;;;2.92;1.23;;;5.60;95.20;;;;;;5017033;28;20027;-90
2021/12/07 04:21:41;;;;;;;3.78;1.00;;;5.60;95.20;;;;;;5007467;28;20024;-90
2021/12/07 04:24:07;;;;;;;6.03;1.20;;;5.50;95.20;;;;;;5017355;28;20396;-90
2021/12/07 04:26:34;;;;;;;3.83;1.48;;;5.50;95.20;;;;;;5028928;28;20035;-90
2021/12/07 04:29:00;;;;;;;5.63;1.45;;;5.40;95.20;;;;;;4998537;28;20028;-90
2021/12/07 04:31:26;;;;;;;3.03;1.42;;;5.50;95.20;;;;;;5010965;28;20429;-90
2021/12/07 04:33:51;;;;;;;5.68;1.40;;;5.40;95.20;;;;;;5018368;28;20165;-90
2021/12/07 04:36:17;;;;;;;4.13;1.65;;;5.40;95.30;;;;;;5004452;28;20130;-90
2021/12/07 04:38:43;;;;;;;3.25;1.23;;;5.40;95.30;;;;;;5012211;28;20032;-90
2021/12/07 04:41:10;;;;;;;5.13;1.30;;;5.30;95.30;;;;;;5013131;28;20927;-89
2021/12/07 04:43:37;;;;;;;3.38;1.27;;;5.40;95.50;;;;;;4994595;28;20112;-91
2021/12/07 04:48:56;;;;;;;3.90;1.17;;;5.30;95.30;;;;;;5028501;28;20064;-90
2021/12/07 05:00:24;;;;;;;3.15;1.40;;;5.20;95.20;;;;;;4960968;28;20115;-91
2021/12/07 05:03:12;;;;;;;5.47;1.70;;;5.20;95.50;;;;;;4946162;28;20034;-91
2021/12/07 05:05:44;;;;;;;6.43;2.00;;;5.20;95.20;;;;;;4988684;28;20040;-90
2021/12/07 05:08:14;;;;;;;8.43;1.42;;;5.10;95.20;;;;;;5003574;28;20021;-90
2021/12/07 05:23:59;;;;;;;3.10;1.10;;;5.00;95.00;;;;;;5022909;28;20136;-91
2021/12/07 05:37:49;;;;;;;2.63;1.25;;;4.90;95.30;;;;;;5027007;28;20478;-91
2021/12/07 05:40:24;;;;;;;5.03;1.52;;;4.90;95.30;;;;;;5025776;28;20043;-91
2021/12/07 05:42:50;;;;;;;2.70;1.20;;;4.80;95.30;;;;;;5021691;28;20024;-89
2021/12/07 05:45:20;;;;;;;6.57;1.77;;;4.80;95.30;;;;;;5013285;28;20472;-89
2021/12/07 05:47:47;;;;;;;3.90;1.13;;;4.90;95.40;;;;;;4989780;28;20041;-91
2021/12/07 05:50:18;;;;;;;4.28;1.15;;;4.80;95.50;;;;;;5038511;28;20497;-90
2021/12/07 05:52:44;;;;;;;5.70;1.65;;;4.80;95.50;;;;;;5014282;28;20028;-90
2021/12/07 05:55:10;;;;;;;4.43;1.30;;;4.80;95.50;;;;;;5005840;28;20025;-90
2021/12/07 05:57:36;;;;;;;2.22;1.05;;;4.80;95.50;;;;;;5018465;28;20024;-89
2021/12/07 06:00:05;;;;;;;3.47;1.80;;;4.80;95.50;;;;;;5009462;28;20033;-91
2021/12/07 06:02:31;;;;;;;4.53;1.25;;;4.80;95.50;;;;;;4986084;28;20033;-90
2021/12/07 06:04:57;;;;;;;4.15;1.10;;;4.90;95.50;;;;;;5014060;28;20017;-90
2021/12/07 06:07:24;;;;;;;4.13;1.23;;;4.80;95.50;;;;;;5019207;28;20365;-91
2021/12/07 06:09:51;;;;;;;4.65;1.70;;;4.80;95.60;;;;;;5022129;28;20030;-90
2021/12/07 06:12:19;;;;;;;2.53;1.40;;;4.80;95.50;;;;;;5008611;28;20033;-90
2021/12/07 06:14:46;;;;;;;2.50;1.20;;;4.80;95.50;;;;;;5028718;28;20509;-90
2021/12/07 06:17:12;;;;;;;3.90;1.60;;;4.90;95.50;;;;;;5001331;28;20036;-90
2021/12/07 06:19:41;;;;;;;1.73;1.23;;;4.80;95.40;;;;;;5010234;28;20681;-91
2021/12/07 06:22:09;;;;;;;2.80;1.05;;;4.80;95.40;;;;;;5029299;28;20040;-90
2021/12/07 06:24:35;;;;;;;2.75;1.20;;;4.80;95.30;;;;;;4998830;28;20143;-90
2021/12/07 06:27:03;;;;;;;4.75;1.65;;;4.80;95.30;;;;;;5015561;28;20029;-91
2021/12/07 06:29:31;;;;;;;4.57;1.42;;;4.80;95.60;;;;;;5028971;28;20071;-90
2021/12/07 06:31:59;;;;;;;4.70;1.67;;;4.80;95.20;;;;;;5007957;28;20395;-90
2021/12/07 06:34:27;;;;;;;2.30;1.42;;;4.80;95.20;;;;;;4998525;28;20044;-90
2021/12/07 06:36:53;;;;;;;4.47;1.85;;;4.80;95.10;;;;;;5012897;28;20033;-90
2021/12/07 06:39:22;;;;;;;3.80;1.52;;;4.80;95.10;;;;;;4988230;28;20433;-90
2021/12/07 06:41:48;;;;;;;6.40;2.53;;;4.80;95.10;;;;;;5009459;28;20037;-90
2021/12/07 06:44:15;;;;;;;4.50;1.58;;;4.70;95.10;;;;;;5010097;28;20029;-90
2021/12/07 06:46:47;;;;;;;4.57;1.77;;;4.70;95.20;;;;;;5008869;28;20462;-91
2021/12/07 06:49:20;;;;;;;5.03;1.52;;;4.70;95.20;;;;;;5009830;28;20029;-91
2021/12/07 06:51:49;;;;;;;4.60;1.37;;;4.70;95.10;;;;;;5010300;28;20577;-90
2021/12/07 06:54:16;;;;;;;2.67;1.58;;;4.70;95.00;;;;;;5027549;28;20306;-91
2021/12/07 06:56:44;;;;;;;2.85;1.40;;;4.70;94.90;;;;;;4995514;28;20526;-90
2021/12/07 06:59:10;;;;;;;4.32;1.70;;;4.70;94.80;;;;;;5021215;28;20486;-90
2021/12/07 07:01:38;;;;;;;3.00;1.20;;;4.60;94.70;;;;;;5023753;28;20025;-90
2021/12/07 07:04:14;;;;;;;3.70;1.33;;;4.60;94.70;;;;;;5032134;28;20033;-90
2021/12/07 07:06:41;;;;;;;5.10;1.58;;;4.60;94.70;;;;;;5011411;28;20866;-91
2021/12/07 07:09:11;;;;;;;4.05;1.42;;;4.50;94.60;;;;;;5009267;28;20021;-91
2021/12/07 07:11:38;;;;;;;3.50;1.70;;;4.50;94.60;;;;;;5015139;28;20549;-90
2021/12/07 07:14:04;;;;;;;2.90;1.38;;;4.50;94.60;;;;;;5013691;28;20064;-90
2021/12/07 07:16:31;;;;;;;6.45;3.15;;;4.40;94.60;;;;;;5026079;28;20497;-91
2021/12/07 07:18:59;;;;;;;5.85;3.60;;;4.40;94.60;;;;;;5017986;28;20035;-91
2021/12/07 07:21:26;;;;;;;5.30;2.88;;;4.40;94.70;;;;;;5003476;28;20056;-90
2021/12/07 07:23:54;;;;;;;4.65;1.90;;;4.40;94.70;;;;;;5021920;28;20103;-90
2021/12/07 07:26:20;;;;;;;2.72;1.70;;;4.40;94.80;;;;;;4995972;28;20029;-90
2021/12/07 07:28:47;;;;;;;2.72;1.55;;;4.30;94.80;;;;;;5017938;28;20250;-90
2021/12/07 07:31:16;;;;;;;3.25;1.42;;;4.30;94.80;;;;;;5022967;28;20040;-90
2021/12/07 07:33:43;;;;;;;4.97;2.03;;;4.30;94.80;;;;;;5019902;28;20279;-90
2021/12/07 07:36:10;;;;;;;3.80;1.83;;;4.30;94.80;;;;;;5008565;28;20174;-90
2021/12/07 07:38:38;;;;;;;5.78;1.85;;;4.30;94.90;;;;;;5010497;28;20013;-91
2021/12/07 07:41:04;;;;;;;5.90;1.65;;;4.30;95.00;;;;;;4988230;28;22084;-90
2021/12/07 07:43:30;;;;;;;4.35;1.70;;;4.30;95.10;;;;;;5005939;28;20021;-90
2021/12/07 07:45:57;;;;;;;6.13;2.22;;;4.30;95.20;;;;;;5009749;28;20037;-90
2021/12/07 07:48:24;;;;;;;8.25;2.40;;;4.30;95.30;;;;;;5022929;28;20020;-90
2021/12/07 07:50:52;;;;;;;6.88;2.45;;;4.30;95.40;;;;;;5018540;28;20048;-90
2021/12/07 07:53:18;;;;;;;8.98;2.90;;;4.30;95.40;;;;;;5022406;28;20099;-90
2021/12/07 07:55:44;;;;;;;4.93;2.05;;;4.30;95.50;;;;;;5010332;28;20012;-90
2021/12/07 07:58:11;;;;;;;7.47;2.47;;;4.30;95.50;;;;;;4988757;28;20246;-90
2021/12/07 08:00:39;;;;;;;3.97;1.90;;;4.30;95.60;;;;;;5032637;28;20156;-90
2021/12/07 08:03:06;;;;;;;9.48;2.80;;;4.40;95.60;;;;;;5003308;28;20528;-90
2021/12/07 08:05:34;;;;;;;6.70;2.40;;;4.40;95.70;;;;;;5014035;28;20051;-90
2021/12/07 08:08:02;;;;;;;4.80;2.40;;;4.40;95.80;;;;;;4995716;28;20041;-90
2021/12/07 08:10:28;;;;;;;4.15;2.15;;;4.40;95.80;;;;;;4997696;28;20190;-90
2021/12/07 08:12:57;;;;;;;6.85;2.30;;;4.50;95.90;;;;;;4992229;28;20028;-90
2021/12/07 08:15:28;;;;;;;5.00;1.98;;;4.50;96.00;;;;;;5005992;28;20037;-90
2021/12/07 08:17:55;;;;;;;4.32;2.15;;;4.50;96.20;;;;;;5022402;28;20517;-90
2021/12/07 08:20:22;;;;;;;4.25;2.10;;;4.60;96.20;;;;;;5043987;28;20044;-90
2021/12/07 08:22:48;;;;;;;5.22;2.05;;;4.60;96.50;;;;;;4991614;28;20074;-90
2021/12/07 08:25:15;;;;;;;3.67;1.88;;;4.70;97.00;;;;;;5015734;28;20550;-91
2021/12/07 08:27:42;;;;;;;8.00;3.05;;;4.80;97.70;;;;;;5008653;28;20033;-90
2021/12/07 08:30:10;;;;;;;7.70;3.10;;;5.00;98.20;;;;;;5016809;28;20037;-89
2021/12/07 08:32:39;;;;;;;4.43;2.50;;;5.10;98.30;;;;;;5015574;28;20017;-91
2021/12/07 08:35:05;;;;;;;2.88;1.80;;;5.30;98.10;;;;;;5008245;28;20024;-91
2021/12/07 08:37:31;;;;;;;4.53;1.70;;;5.50;97.80;;;;;;5013431;28;20036;-90
2021/12/07 08:39:59;;;;;;;4.50;1.55;;;5.60;97.60;;;;;;5003059;28;20029;-90
2021/12/07 08:42:24;;;;;;;4.07;1.85;;;5.70;97.50;;;;;;5002641;28;20028;-90
2021/12/07 08:44:53;;;;;;;5.45;2.08;;;5.70;97.20;;;;;;4998253;28;20102;-90
2021/12/07 08:47:20;;;;;;;3.92;2.13;;;5.80;97.00;;;;;;5031103;28;20573;-90
2021/12/07 08:49:47;;;;;;;6.32;1.77;;;5.80;96.80;;;;;;5008998;28;20120;-90
2021/12/07 08:52:15;;;;;;;5.57;1.83;;;5.80;96.70;;;;;;5027833;28;20043;-90
2021/12/07 08:59:54;;;;;;;5.65;2.05;;;5.90;96.50;;;;;;5021386;28;20036;-90
2021/12/07 09:02:26;;;;;;;7.57;2.13;;;5.90;96.50;;;;;;5019961;28;20036;-90
2021/12/07 09:04:55;;;;;;;4.45;1.95;;;5.90;97.10;;;;;;5013547;28;20443;-90
2021/12/07 09:07:23;;;;;;;6.50;2.85;;;5.90;96.90;;;;;;5016141;28;20481;-90
2021/12/07 09:09:53;;;;;;;6.32;2.30;;;6.00;96.90;;;;;;5028585;28;20037;-90
2021/12/07 09:12:20;;;;;;;5.03;2.38;;;6.00;97.00;;;;;;5020905;28;20024;-90
2021/12/07 09:14:52;;;;;;;8.55;2.90;;;6.10;97.20;;;;;;4983756;28;20040;-90
2021/12/07 09:17:21;;;;;;;4.93;2.00;;;6.20;97.80;;;;;;5034403;28;20041;-90
2021/12/07 09:19:49;;;;;;;6.47;2.42;;;6.40;98.30;;;;;;5022641;28;20519;-90
2021/12/07 09:22:16;;;;;;;6.97;2.13;;;6.60;99.00;;;;;;5010091;28;20049;-90
2021/12/07 09:24:46;;;;;;;5.78;2.30;;;6.90;99.60;;;;;;4991708;28;20056;-90
2021/12/07 09:27:12;;;;;;;4.57;1.92;;;7.20;99.80;;;;;;5005397;28;20637;-90
2021/12/07 09:29:40;;;;;;;8.88;2.28;;;7.50;99.90;;;;;;5007476;28;20136;-90
2021/12/07 09:32:06;;;;;;;7.80;2.75;;;7.90;99.90;;;;;;4993316;28;20060;-90
2021/12/07 09:34:32;;;;;;;4.53;1.85;;;8.20;99.90;;;;;;5003437;28;20028;-91
2021/12/07 09:36:59;;;;;;;5.50;1.98;;;8.60;99.90;;;;;;4993606;28;20682;-91
2021/12/07 09:39:26;;;;;;;6.10;2.25;;;9.00;99.90;;;;;;4997582;28;20013;-91
2021/12/07 09:41:55;;;;;;;6.18;2.53;;;9.40;99.90;;;;;;4996319;28;20025;-90
2021/12/07 09:44:23;;;;;;;7.20;2.38;;;9.70;99.90;;;;;;5003553;28;20037;-90
2021/12/07 09:46:50;;;;;;;5.65;2.22;;;10.10;99.90;;;;;;4997061;28;20544;-91
2021/12/07 09:49:16;;;;;;;7.55;2.55;;;10.40;99.90;;;;;;5001637;28;20047;-91
2021/12/07 09:51:43;;;;;;;4.07;1.67;;;10.70;99.80;;;;;;5026546;28;20025;-90
2021/12/07 09:54:11;;;;;;;7.88;1.88;;;10.90;99.10;;;;;;5011940;28;20338;-91
2021/12/07 09:56:38;;;;;;;4.72;1.60;;;11.20;99.50;;;;;;5001327;28;20527;-90
2021/12/07 09:59:09;;;;;;;5.60;1.70;;;11.50;99.60;;;;;;5016874;28;20684;-90
2021/12/07 10:01:38;;;;;;;4.57;2.08;;;11.80;99.50;;;;;;5009328;28;20232;-90
2021/12/07 10:04:05;;;;;;;4.68;1.75;;;12.10;99.20;;;;;;5005718;28;20025;-91
2021/12/07 10:06:31;;;;;;;5.50;1.85;;;12.30;98.40;;;;;;5008071;28;20484;-90
2021/12/07 10:08:56;;;;;;;3.90;1.90;;;12.40;98.10;;;;;;5004786;28;20033;-90
2021/12/07 10:11:23;;;;;;;4.63;2.13;;;12.60;97.80;;;;;;4995444;28;20028;-90
2021/12/07 10:13:51;;;;;;;3.58;1.75;;;12.70;97.80;;;;;;5025390;28;20024;-90
2021/12/07 10:16:18;;;;;;;4.88;2.03;;;12.90;98.20;;;;;;5015264;28;20078;-90
2021/12/07 10:18:44;;;;;;;4.78;1.55;;;13.00;98.40;;;;;;4996244;28;20021;-91
2021/12/07 10:21:23;;;;;;;6.00;1.80;;;13.20;98.50;;;;;;4997962;28;20325;-90
2021/12/07 10:23:56;;;;;;;5.55;1.50;;;13.40;97.80;;;;;;5007819;28;20465;-89
2021/12/07 10:26:25;;;;;;;4.15;1.48;;;13.60;97.70;;;;;;4998490;28;20525;-92
2021/12/07 10:28:54;;;;;;;7.20;1.80;;;13.60;97.10;;;;;;5029197;28;20037;-89
2021/12/07 10:31:35;;;;;;;4.60;1.67;;;13.70;96.20;;;;;;5021122;28;20482;-90
2021/12/07 10:34:15;;;;;;;3.30;1.17;;;13.70;96.70;;;;;;5007711;28;20025;-91
2021/12/07 10:37:11;;;;;;;3.15;1.30;;;13.80;95.90;;;;;;5012917;28;20076;-91
2021/12/07 10:39:44;;;;;;;3.50;1.20;;;13.80;94.50;;;;;;5011383;28;20071;-90
2021/12/07 10:42:17;;;;;;;4.78;1.50;;;13.90;96.00;;;;;;4998177;28;21192;-90
2021/12/07 10:44:43;;;;;;;2.08;1.10;;;13.90;95.70;;;;;;5022408;28;20085;-91
2021/12/07 10:47:14;;;;;;;5.97;1.75;;;13.90;96.60;;;;;;5024329;28;20135;-91
2021/12/07 10:49:46;;;;;;;4.55;1.25;;;14.00;95.50;;;;;;5013396;28;20336;-89
2021/12/07 10:52:28;;;;;;;5.53;1.27;;;14.00;95.50;;;;;;5014115;28;20021;-90
2021/12/07 10:55:18;;;;;;;5.82;1.58;;;14.10;96.10;;;;;;5009536;28;20044;-88
2021/12/07 10:57:57;;;;;;;4.18;1.63;;;14.20;96.40;;;;;;4999850;28;20033;-89
2021/12/07 11:00:26;;;;;;;4.75;1.30;;;14.30;96.50;;;;;;5019209;28;21512;-89
2021/12/07 11:03:07;;;;;;;4.38;1.40;;;14.40;97.40;;;;;;5028651;28;20392;-89
2021/12/07 11:05:38;;;;;;;3.22;1.20;;;14.60;95.90;;;;;;5016974;28;20032;-90
2021/12/07 11:08:07;;;;;;;5.35;1.70;;;14.70;96.10;;;;;;5020491;28;20497;-89
2021/12/07 11:10:43;;;;;;;3.03;1.58;;;14.80;96.20;;;;;;5008553;28;20090;-88
2021/12/07 11:13:18;;;;;;;4.28;1.40;;;14.80;94.70;;;;;;5017729;28;20143;-90
2021/12/07 11:15:52;;;;;;;4.43;1.50;;;14.80;95.90;;;;;;5009279;28;20036;-89
2021/12/07 11:18:25;;;;;;;5.63;1.55;;;14.90;96.00;;;;;;5014659;28;20154;-88
2021/12/07 11:20:56;;;;;;;5.70;2.10;;;14.90;95.50;;;;;;5011887;28;20028;-89
2021/12/07 11:23:26;;;;;;;8.13;2.20;;;15.00;96.80;;;;;;5017128;28;20112;-89
2021/12/07 11:31:26;;;;;;;6.50;1.50;;;15.10;93.30;;;;;;5018332;28;20336;-89
2021/12/07 11:34:03;;;;;;;5.78;2.10;;;14.90;92.20;;;;;;5001017;28;20185;-88
2021/12/07 11:36:31;;;;;;;4.43;1.55;;;14.70;91.80;;;;;;5002379;28;20016;-88
2021/12/07 11:38:58;;;;;;;5.70;2.03;;;14.30;91.30;;;;;;5000721;28;20032;-89
2021/12/07 11:41:31;;;;;;;4.88;1.77;;;14.00;91.50;;;;;;5012515;28;20029;-89
2021/12/07 11:44:08;;;;;;;8.63;2.22;;;13.80;91.20;;;;;;5004611;28;20032;-89
2021/12/07 11:46:38;;;;;;;5.30;2.15;;;13.40;89.80;;;;;;5002527;28;20059;-89
2021/12/07 11:49:08;;;;;;;6.65;2.55;;;13.10;91.40;;;;;;5017132;28;20032;-90
2021/12/07 11:51:35;;;;;;;5.38;1.90;;;12.80;91.60;;;;;;5003833;28;20091;-89
2021/12/07 11:54:03;;;;;;;7.68;2.03;;;12.50;92.20;;;;;;5012035;28;20239;-88
2021/12/07 11:56:30;;;;;;;5.60;2.03;;;12.30;92.80;;;;;;5037123;28;20029;-88
2021/12/07 11:58:56;;;;;;;6.65;2.00;;;12.10;93.90;;;;;;5004987;28;20040;-88
2021/12/07 12:01:22;;;;;;;5.63;1.65;;;12.00;94.70;;;;;;5005092;28;20025;-88
2021/12/07 12:03:48;;;;;;;4.82;2.20;;;12.00;95.30;;;;;;4999000;28;20204;-88
2021/12/07 12:06:13;;;;;;;4.25;1.80;;;12.00;95.20;;;;;;5018658;28;20013;-90
2021/12/07 12:08:41;;;;;;;4.57;1.90;;;12.00;95.10;;;;;;4999005;28;20028;-89
2021/12/07 12:11:16;;;;;;;4.53;1.42;;;12.00;95.10;;;;;;5020315;28;20035;-88
2021/12/07 12:13:46;;;;;;;6.40;2.10;;;12.00;93.90;;;;;;5006498;28;20397;-88
2021/12/07 12:16:21;;;;;;;5.15;2.08;;;12.00;94.40;;;;;;5008173;28;20036;-88
2021/12/07 12:19:12;;;;;;;6.20;1.90;;;11.90;93.30;;;;;;5021288;28;20261;-89
2021/12/07 12:22:05;;;;;;;8.00;1.85;;;11.80;93.40;;;;;;5034763;28;20739;-88
2021/12/07 12:24:53;;;;;;;3.60;1.45;;;11.70;93.50;;;;;;5003576;28;20547;-89
2021/12/07 12:27:32;;;;;;;4.85;1.52;;;11.60;92.90;;;;;;5008701;28;20381;-88
2021/12/07 12:30:03;;;;;;;3.47;1.80;;;11.50;94.10;;;;;;5011973;28;20049;-89
2021/12/07 12:32:38;;;;;;;3.78;1.42;;;11.40;94.20;;;;;;5006042;28;20389;-90
2021/12/07 12:35:07;;;;;;;3.97;1.60;;;11.30;94.00;;;;;;5029176;28;20032;-88
2021/12/07 12:37:34;;;;;;;5.43;1.65;;;11.20;94.60;;;;;;4999244;28;20037;-87
2021/12/07 12:40:10;;;;;;;2.60;1.40;;;11.20;94.60;;;;;;5005900;28;20652;-88
2021/12/07 12:42:48;;;;;;;4.97;1.38;;;11.20;94.40;;;;;;5015171;28;20103;-90
2021/12/07 12:45:28;;;;;;;2.78;1.63;;;11.10;94.00;;;;;;5016179;28;20655;-88
2021/12/07 12:47:55;;;;;;;3.63;1.77;;;11.00;93.60;;;;;;5004410;28;20040;-89
2021/12/07 12:50:32;;;;;;;5.22;1.83;;;10.90;93.50;;;;;;5021766;28;20473;-88
2021/12/07 12:53:08;;;;;;;4.25;1.80;;;10.80;93.00;;;;;;5005258;28;20083;-88
2021/12/07 12:55:53;;;;;;;4.82;1.33;;;10.70;93.60;;;;;;5011547;28;20012;-88
2021/12/07 12:58:42;;;;;;;5.28;1.80;;;10.60;93.20;;;;;;5027070;28;20033;-88
2021/12/07 13:01:11;;;;;;;3.80;1.73;;;10.50;93.10;;;;;;5008584;28;20387;-88
2021/12/07 13:03:43;;;;;;;4.97;2.10;;;10.40;94.00;;;;;;5010092;28;20025;-89
2021/12/07 13:06:18;;;;;;;2.90;1.42;;;10.30;94.10;;;;;;5012387;28;20302;-88
2021/12/07 13:08:56;;;;;;;5.90;2.38;;;10.30;93.90;;;;;;5001845;28;20021;-88
2021/12/07 13:11:42;;;;;;;3.28;1.80;;;10.20;93.90;;;;;;5011809;28;20069;-89
2021/12/07 13:14:30;;;;;;;3.55;1.80;;;10.10;93.90;;;;;;5017453;28;20203;-88
2021/12/07 13:17:04;;;;;;;3.28;1.65;;;10.10;93.70;;;;;;5012127;28;20108;-89
2021/12/07 13:19:32;;;;;;;5.00;1.88;;;10.00;94.20;;;;;;5006007;28;20032;-88
2021/12/07 13:22:04;;;;;;;4.03;2.00;;;10.00;94.60;;;;;;5021553;28;20146;-88
2021/12/07 13:24:34;;;;;;;3.75;1.63;;;10.00;94.10;;;;;;4998071;28;20602;-88
2021/12/07 13:27:09;;;;;;;4.40;2.03;;;9.90;94.40;;;;;;5011641;28;20066;-88
2021/12/07 13:29:36;;;;;;;5.60;2.83;;;9.90;94.60;;;;;;5002145;28;20028;-88
2021/12/07 13:32:05;;;;;;;3.97;2.20;;;9.90;94.70;;;;;;5025924;28;20120;-89
2021/12/07 13:34:34;;;;;;;3.60;1.80;;;9.90;94.60;;;;;;4998713;28;20031;-87
2021/12/07 13:37:02;;;;;;;4.32;2.15;;;9.90;94.20;;;;;;5012921;28;20460;-88
2021/12/07 13:39:34;;;;;;;6.13;2.00;;;9.80;94.30;;;;;;5018237;28;20028;-88
2021/12/07 13:42:17;;;;;;;5.45;2.05;;;9.80;94.20;;;;;;4992286;28;20674;-88
2021/12/07 13:44:56;;;;;;;6.43;2.72;;;9.80;94.00;;;;;;5019865;28;20226;-88
2021/12/07 13:47:28;;;;;;;5.05;2.40;;;9.70;94.10;;;;;;5014176;28;20029;-88
2021/12/07 13:50:08;;;;;;;3.17;2.00;;;9.60;94.10;;;;;;5014431;28;20497;-89
2021/12/07 13:52:36;;;;;;;3.45;2.00;;;9.60;94.00;;;;;;5007913;28;20083;-88
2021/12/07 13:55:09;;;;;;;3.78;1.50;;;9.50;94.30;;;;;;4998382;28;20128;-88
2021/12/07 13:57:37;;;;;;;2.50;1.75;;;9.50;94.20;;;;;;5035679;28;20029;-89
2021/12/07 14:00:22;;;;;;;3.45;1.98;;;9.50;94.20;;;;;;5009347;28;20318;-88
2021/12/07 14:02:57;;;;;;;6.03;2.50;;;9.40;94.20;;;;;;5016833;28;20032;-88
2021/12/07 14:05:29;;;;;;;4.45;2.17;;;9.30;94.00;;;;;;5007939;28;20462;-88
2021/12/07 14:07:58;;;;;;;4.88;2.00;;;9.30;94.20;;;;;;5003237;28;20507;-89
2021/12/07 14:10:31;;;;;;;5.25;2.35;;;9.20;94.20;;;;;;5024328;28;20107;-88
2021/12/07 14:12:59;;;;;;;3.33;2.38;;;9.20;94.40;;;;;;5009249;28;20064;-89
2021/12/07 14:15:33;;;;;;;4.80;2.53;;;9.10;94.40;;;;;;5019185;28;20028;-90
2021/12/07 14:18:17;;;;;;;5.80;2.30;;;9.10;94.00;;;;;;4998858;28;20435;-89
2021/12/07 14:20:48;;;;;;;5.32;2.40;;;9.00;93.80;;;;;;5009170;28;20571;-88
2021/12/07 14:23:19;;;;;;;4.93;2.13;;;9.00;94.20;;;;;;5017389;28;20048;-89
2021/12/07 14:26:02;;;;;;;5.38;2.58;;;8.90;94.30;;;;;;5012338;28;20503;-88
2021/12/07 14:28:33;;;;;;;5.30;2.67;;;8.90;94.10;;;;;;5012551;28;20029;-90
2021/12/07 14:31:19;;;;;;;4.35;2.30;;;8.90;94.50;;;;;;5015139;28;20537;-89
2021/12/07 14:33:54;;;;;;;4.65;2.42;;;8.80;94.10;;;;;;5017343;28;20052;-89
2021/12/07 14:36:24;;;;;;;5.60;2.25;;;8.80;94.60;;;;;;5017250;28;20056;-88
2021/12/07 14:38:52;;;;;;;4.35;2.10;;;8.80;94.60;;;;;;5018326;28;20145;-88
2021/12/07 14:41:21;;;;;;;3.50;2.20;;;8.70;94.70;;;;;;4995314;28;20040;-89
2021/12/07 14:43:48;;;;;;;5.60;2.05;;;8.70;94.80;;;;;;5026204;28;20029;-88
2021/12/07 14:46:16;;;;;;;4.25;2.63;;;8.70;94.90;;;;;;5013053;28;21035;-88
2021/12/07 14:48:44;;;;;;;3.42;2.22;;;8.70;95.00;;;;;;5039142;28;20020;-88
2021/12/07 14:51:12;;;;;;;3.65;2.30;;;8.70;95.00;;;;;;5044741;28;20017;-86
2021/12/07 14:53:45;;;;;;;6.20;2.58;;;8.70;94.90;;;;;;4994796;28;20524;-89
2021/12/07 14:56:13;;;;;;;3.88;2.40;;;8.60;94.90;;;;;;5033864;28;20020;-88
2021/12/07 14:58:40;;;;;;;4.70;2.40;;;8.60;94.90;;;;;;4998758;28;20111;-88